General Aviation Weather

Text Reports

Enter one or more of the following location identifiers separated by a space:

Zip Code, Four-Character ICAO or Three-Character IATA airport codes.

METAR - Aviation Routine Weather Report
KLRJ - Le Mars, Iowa
Updated at 9:55 AM GMT on May 28, 2015 (4:55 AM CDT):
METAR KLRJ 280955Z AUTO 17003KT 10SM CLR 15/12 A3005 RMK AO2
TAF - Terminal Area Forecast
KLRJ - Le Mars, Iowa
Updated at 9:55 AM GMT on May 28, 2015 (4:55 AM CDT):
No TAF is currently available for this location.
Decoded:
No decoded TAF is available.
PIREP - Pilot Weather Report
KLRJ - Le Mars, Iowa
Updated at 9:55 AM GMT on May 28, 2015 (4:55 AM CDT):
No PIREP is currently available for this location.
AIRMET - Airmens Meteorological Information
KLRJ - Le Mars, Iowa
Updated at 9:55 AM GMT on May 28, 2015 (4:55 AM CDT):
No AIRMET is currently available for this location.
SIGMET - Significant Meteorological Information
KLRJ - Le Mars, Iowa
Updated at 9:55 AM GMT on May 28, 2015 (4:55 AM CDT):
No SIGMET is currently available for this location.
NOTAM - Notice to Airmen
KLRJ - Le Mars, Iowa
Updated at 9:55 AM GMT on May 28, 2015 (4:55 AM CDT):
No NOTAM is currently available for this location.
Forecast Area
KLRJ - Le Mars, Iowa
Updated at 9:55 AM GMT on May 28, 2015 (4:55 AM CDT):
No NOTAM is currently available for this location.
Aviation Weather Maps